sensor_id;sensor_type;location;lat;lon;timestamp;temperature;humidity
21123;DHT22;10719;48.130;11.630;2023-09-30T00:01:09;17.50;99.90
21123;DHT22;10719;48.130;11.630;2023-09-30T00:03:36;17.40;99.90
21123;DHT22;10719;48.130;11.630;2023-09-30T00:06:01;17.30;99.90
21123;DHT22;10719;48.130;11.630;2023-09-30T00:08:27;17.30;99.90
21123;DHT22;10719;48.130;11.630;2023-09-30T00:10:52;17.40;99.90
21123;DHT22;10719;48.130;11.630;2023-09-30T00:13:20;17.30;99.90
21123;DHT22;10719;48.130;11.630;2023-09-30T00:15:45;17.20;99.90
21123;DHT22;10719;48.130;11.630;2023-09-30T00:18:11;17.20;99.90
21123;DHT22;10719;48.130;11.630;2023-09-30T00:20:36;17.20;99.90
21123;DHT22;10719;48.130;11.630;2023-09-30T00:23:02;17.20;99.90
21123;DHT22;10719;48.130;11.630;2023-09-30T00:25:28;17.10;99.90
21123;DHT22;10719;48.130;11.630;2023-09-30T00:27:54;17.20;99.90
21123;DHT22;10719;48.130;11.630;2023-09-30T00:30:19;17.10;99.90
21123;DHT22;10719;48.130;11.630;2023-09-30T00:32:46;17.20;99.90
21123;DHT22;10719;48.130;11.630;2023-09-30T00:35:12;17.20;99.90
21123;DHT22;10719;48.130;11.630;2023-09-30T00:37:38;17.10;99.90
21123;DHT22;10719;48.130;11.630;2023-09-30T00:40:05;17.20;99.90
21123;DHT22;10719;48.130;11.630;2023-09-30T00:42:31;17.30;99.90
21123;DHT22;10719;48.130;11.630;2023-09-30T00:44:57;17.30;99.90
21123;DHT22;10719;48.130;11.630;2023-09-30T00:47:23;17.30;99.90
21123;DHT22;10719;48.130;11.630;2023-09-30T00:49:50;17.30;99.90
21123;DHT22;10719;48.130;11.630;2023-09-30T00:52:16;17.20;99.90
21123;DHT22;10719;48.130;11.630;2023-09-30T00:54:43;17.20;99.90
21123;DHT22;10719;48.130;11.630;2023-09-30T00:57:10;17.20;99.90
21123;DHT22;10719;48.130;11.630;2023-09-30T00:59:36;17.20;99.90
21123;DHT22;10719;48.130;11.630;2023-09-30T01:02:03;17.20;99.90
21123;DHT22;10719;48.130;11.630;2023-09-30T01:04:30;17.10;99.90
21123;DHT22;10719;48.130;11.630;2023-09-30T01:06:56;17.10;99.90
21123;DHT22;10719;48.130;11.630;2023-09-30T01:09:24;17.00;99.90
21123;DHT22;10719;48.130;11.630;2023-09-30T01:11:51;17.00;99.90
21123;DHT22;10719;48.130;11.630;2023-09-30T01:14:26;17.00;99.90
21123;DHT22;10719;48.130;11.630;2023-09-30T01:16:52;17.00;99.90
21123;DHT22;10719;48.130;11.630;2023-09-30T01:19:17;16.90;99.90
21123;DHT22;10719;48.130;11.630;2023-09-30T01:21:43;16.80;99.90
21123;DHT22;10719;48.130;11.630;2023-09-30T01:24:14;16.80;99.90
21123;DHT22;10719;48.130;11.630;2023-09-30T01:26:40;16.90;99.90
21123;DHT22;10719;48.130;11.630;2023-09-30T01:29:05;16.90;99.90
21123;DHT22;10719;48.130;11.630;2023-09-30T01:31:31;16.90;99.90
21123;DHT22;10719;48.130;11.630;2023-09-30T01:33:56;16.90;99.90
21123;DHT22;10719;48.130;11.630;2023-09-30T01:36:22;17.00;99.90
21123;DHT22;10719;48.130;11.630;2023-09-30T01:38:47;16.90;99.90
21123;DHT22;10719;48.130;11.630;2023-09-30T01:41:13;16.90;99.90
21123;DHT22;10719;48.130;11.630;2023-09-30T01:43:39;16.80;99.90
21123;DHT22;10719;48.130;11.630;2023-09-30T01:46:04;16.80;99.90
21123;DHT22;10719;48.130;11.630;2023-09-30T01:48:31;16.80;99.90
21123;DHT22;10719;48.130;11.630;2023-09-30T01:50:57;16.80;99.90
21123;DHT22;10719;48.130;11.630;2023-09-30T01:53:23;16.80;99.90
21123;DHT22;10719;48.130;11.630;2023-09-30T01:55:48;16.80;99.90
21123;DHT22;10719;48.130;11.630;2023-09-30T01:58:14;16.80;99.90
21123;DHT22;10719;48.130;11.630;2023-09-30T02:00:39;16.90;99.90
21123;DHT22;10719;48.130;11.630;2023-09-30T02:03:05;16.80;99.90
21123;DHT22;10719;48.130;11.630;2023-09-30T02:05:31;16.90;99.90
21123;DHT22;10719;48.130;11.630;2023-09-30T02:07:56;16.70;99.90
21123;DHT22;10719;48.130;11.630;2023-09-30T02:10:22;16.70;99.90
21123;DHT22;10719;48.130;11.630;2023-09-30T02:12:47;16.70;99.90
21123;DHT22;10719;48.130;11.630;2023-09-30T02:15:13;16.70;99.90
21123;DHT22;10719;48.130;11.630;2023-09-30T02:17:39;16.70;99.90
21123;DHT22;10719;48.130;11.630;2023-09-30T02:20:06;16.70;99.90
21123;DHT22;10719;48.130;11.630;2023-09-30T02:22:38;16.60;99.90
21123;DHT22;10719;48.130;11.630;2023-09-30T02:25:04;16.60;99.90
21123;DHT22;10719;48.130;11.630;2023-09-30T02:27:32;16.60;99.90
21123;DHT22;10719;48.130;11.630;2023-09-30T02:29:58;16.50;99.90
21123;DHT22;10719;48.130;11.630;2023-09-30T02:32:23;16.60;99.90
21123;DHT22;10719;48.130;11.630;2023-09-30T02:34:49;16.60;99.90
21123;DHT22;10719;48.130;11.630;2023-09-30T02:37:16;16.60;99.90
21123;DHT22;10719;48.130;11.630;2023-09-30T02:39:43;16.70;99.90
21123;DHT22;10719;48.130;11.630;2023-09-30T02:42:10;16.60;99.90
21123;DHT22;10719;48.130;11.630;2023-09-30T02:44:35;16.60;99.90
21123;DHT22;10719;48.130;11.630;2023-09-30T02:47:01;16.70;99.90
21123;DHT22;10719;48.130;11.630;2023-09-30T02:49:26;16.70;99.90
21123;DHT22;10719;48.130;11.630;2023-09-30T02:51:53;16.60;99.90
21123;DHT22;10719;48.130;11.630;2023-09-30T02:54:18;16.50;99.90
21123;DHT22;10719;48.130;11.630;2023-09-30T02:56:44;16.60;99.90
21123;DHT22;10719;48.130;11.630;2023-09-30T02:59:11;16.60;99.90
21123;DHT22;10719;48.130;11.630;2023-09-30T03:01:37;16.60;99.90
21123;DHT22;10719;48.130;11.630;2023-09-30T03:04:03;16.50;99.90
21123;DHT22;10719;48.130;11.630;2023-09-30T03:06:33;16.50;99.90
21123;DHT22;10719;48.130;11.630;2023-09-30T03:09:00;16.50;99.90
21123;DHT22;10719;48.130;11.630;2023-09-30T03:11:28;16.50;99.90
21123;DHT22;10719;48.130;11.630;2023-09-30T03:13:55;16.40;99.90
21123;DHT22;10719;48.130;11.630;2023-09-30T03:16:20;16.30;99.90
21123;DHT22;10719;48.130;11.630;2023-09-30T03:18:46;16.30;99.90
21123;DHT22;10719;48.130;11.630;2023-09-30T03:21:15;16.40;99.90
21123;DHT22;10719;48.130;11.630;2023-09-30T03:23:41;16.40;99.90
21123;DHT22;10719;48.130;11.630;2023-09-30T03:26:06;16.30;99.90
21123;DHT22;10719;48.130;11.630;2023-09-30T03:28:38;16.20;99.90
21123;DHT22;10719;48.130;11.630;2023-09-30T03:31:04;16.20;99.90
21123;DHT22;10719;48.130;11.630;2023-09-30T03:33:31;16.10;99.90
21123;DHT22;10719;48.130;11.630;2023-09-30T03:35:57;16.10;99.90
21123;DHT22;10719;48.130;11.630;2023-09-30T03:38:24;16.10;99.90
21123;DHT22;10719;48.130;11.630;2023-09-30T03:40:49;16.00;99.90
21123;DHT22;10719;48.130;11.630;2023-09-30T03:43:16;16.00;99.90
21123;DHT22;10719;48.130;11.630;2023-09-30T03:45:41;15.90;99.90
21123;DHT22;10719;48.130;11.630;2023-09-30T03:48:07;15.90;99.90
21123;DHT22;10719;48.130;11.630;2023-09-30T03:50:33;16.10;99.90
21123;DHT22;10719;48.130;11.630;2023-09-30T03:53:05;16.10;99.90
21123;DHT22;10719;48.130;11.630;2023-09-30T03:55:32;16.20;99.90
21123;DHT22;10719;48.130;11.630;2023-09-30T03:57:59;16.20;99.90
21123;DHT22;10719;48.130;11.630;2023-09-30T04:00:24;16.20;99.90
21123;DHT22;10719;48.130;11.630;2023-09-30T04:02:50;16.20;99.90
21123;DHT22;10719;48.130;11.630;2023-09-30T04:05:20;16.20;99.90
21123;DHT22;10719;48.130;11.630;2023-09-30T04:07:51;16.20;99.90
21123;DHT22;10719;48.130;11.630;2023-09-30T04:10:17;16.20;99.90
21123;DHT22;10719;48.130;11.630;2023-09-30T04:12:43;16.30;99.90
21123;DHT22;10719;48.130;11.630;2023-09-30T04:15:09;16.20;99.90
21123;DHT22;10719;48.130;11.630;2023-09-30T04:17:37;16.30;99.90
21123;DHT22;10719;48.130;11.630;2023-09-30T04:20:05;16.30;99.90
21123;DHT22;10719;48.130;11.630;2023-09-30T04:22:34;16.30;99.90
21123;DHT22;10719;48.130;11.630;2023-09-30T04:25:00;16.30;99.90
21123;DHT22;10719;48.130;11.630;2023-09-30T04:27:26;16.20;99.90
21123;DHT22;10719;48.130;11.630;2023-09-30T04:29:52;16.20;99.90
21123;DHT22;10719;48.130;11.630;2023-09-30T04:32:18;16.30;99.90
21123;DHT22;10719;48.130;11.630;2023-09-30T04:34:45;16.20;99.90
21123;DHT22;10719;48.130;11.630;2023-09-30T04:37:13;16.20;99.90
21123;DHT22;10719;48.130;11.630;2023-09-30T04:39:39;16.10;99.90
21123;DHT22;10719;48.130;11.630;2023-09-30T04:42:05;16.00;99.90
21123;DHT22;10719;48.130;11.630;2023-09-30T04:44:30;15.90;99.90
21123;DHT22;10719;48.130;11.630;2023-09-30T04:46:57;15.90;99.90
21123;DHT22;10719;48.130;11.630;2023-09-30T04:49:23;15.80;99.90
21123;DHT22;10719;48.130;11.630;2023-09-30T04:51:49;15.70;99.90
21123;DHT22;10719;48.130;11.630;2023-09-30T04:54:15;15.50;99.90
21123;DHT22;10719;48.130;11.630;2023-09-30T04:56:40;15.50;99.90
21123;DHT22;10719;48.130;11.630;2023-09-30T04:59:06;15.40;99.90
21123;DHT22;10719;48.130;11.630;2023-09-30T05:01:32;15.40;99.90
21123;DHT22;10719;48.130;11.630;2023-09-30T05:03:58;15.40;99.90
21123;DHT22;10719;48.130;11.630;2023-09-30T05:06:24;15.50;99.90
21123;DHT22;10719;48.130;11.630;2023-09-30T05:08:50;15.40;99.90
21123;DHT22;10719;48.130;11.630;2023-09-30T05:11:15;15.40;99.90
21123;DHT22;10719;48.130;11.630;2023-09-30T05:13:41;15.30;99.90
21123;DHT22;10719;48.130;11.630;2023-09-30T05:16:07;15.40;99.90
21123;DHT22;10719;48.130;11.630;2023-09-30T05:18:36;15.30;99.90
21123;DHT22;10719;48.130;11.630;2023-09-30T05:21:02;15.20;99.90
21123;DHT22;10719;48.130;11.630;2023-09-30T05:23:28;15.30;99.90
21123;DHT22;10719;48.130;11.630;2023-09-30T05:25:53;15.30;99.90
21123;DHT22;10719;48.130;11.630;2023-09-30T05:28:22;15.40;99.90
21123;DHT22;10719;48.130;11.630;2023-09-30T05:30:48;15.50;99.90
21123;DHT22;10719;48.130;11.630;2023-09-30T05:33:13;15.50;99.90
21123;DHT22;10719;48.130;11.630;2023-09-30T05:35:41;15.50;99.90
21123;DHT22;10719;48.130;11.630;2023-09-30T05:38:07;15.60;99.90
21123;DHT22;10719;48.130;11.630;2023-09-30T05:40:33;15.50;99.90
21123;DHT22;10719;48.130;11.630;2023-09-30T05:42:59;15.50;99.90
21123;DHT22;10719;48.130;11.630;2023-09-30T05:45:26;15.50;99.90
21123;DHT22;10719;48.130;11.630;2023-09-30T05:47:52;15.60;99.90
21123;DHT22;10719;48.130;11.630;2023-09-30T05:50:19;15.60;99.90
21123;DHT22;10719;48.130;11.630;2023-09-30T05:52:50;15.60;99.90
21123;DHT22;10719;48.130;11.630;2023-09-30T05:55:17;15.60;99.90
21123;DHT22;10719;48.130;11.630;2023-09-30T05:57:46;15.60;99.90
21123;DHT22;10719;48.130;11.630;2023-09-30T06:00:13;15.70;99.90
21123;DHT22;10719;48.130;11.630;2023-09-30T06:02:53;15.80;99.90
21123;DHT22;10719;48.130;11.630;2023-09-30T06:05:18;15.80;99.90
21123;DHT22;10719;48.130;11.630;2023-09-30T06:07:45;15.90;99.90
21123;DHT22;10719;48.130;11.630;2023-09-30T06:10:12;15.90;99.90
21123;DHT22;10719;48.130;11.630;2023-09-30T06:12:38;16.00;99.90
21123;DHT22;10719;48.130;11.630;2023-09-30T06:15:04;16.00;99.90
21123;DHT22;10719;48.130;11.630;2023-09-30T06:17:31;16.00;99.90
21123;DHT22;10719;48.130;11.630;2023-09-30T06:19:58;16.10;99.90
21123;DHT22;10719;48.130;11.630;2023-09-30T06:22:32;16.10;99.90
21123;DHT22;10719;48.130;11.630;2023-09-30T06:24:58;16.00;99.90
21123;DHT22;10719;48.130;11.630;2023-09-30T06:27:23;16.10;99.90
21123;DHT22;10719;48.130;11.630;2023-09-30T06:29:49;16.10;99.90
21123;DHT22;10719;48.130;11.630;2023-09-30T06:32:15;16.10;99.90
21123;DHT22;10719;48.130;11.630;2023-09-30T06:34:41;16.20;99.90
21123;DHT22;10719;48.130;11.630;2023-09-30T06:37:06;16.10;99.90
21123;DHT22;10719;48.130;11.630;2023-09-30T06:39:32;16.10;99.90
21123;DHT22;10719;48.130;11.630;2023-09-30T06:41:57;16.10;99.90
21123;DHT22;10719;48.130;11.630;2023-09-30T06:44:23;16.10;99.90
21123;DHT22;10719;48.130;11.630;2023-09-30T06:46:50;16.10;99.90
21123;DHT22;10719;48.130;11.630;2023-09-30T06:49:16;16.20;99.90
21123;DHT22;10719;48.130;11.630;2023-09-30T06:51:42;16.30;99.90
21123;DHT22;10719;48.130;11.630;2023-09-30T06:54:08;16.20;99.90
21123;DHT22;10719;48.130;11.630;2023-09-30T06:56:34;16.20;99.90
21123;DHT22;10719;48.130;11.630;2023-09-30T06:59:01;16.20;99.90
21123;DHT22;10719;48.130;11.630;2023-09-30T07:01:26;16.20;99.90
21123;DHT22;10719;48.130;11.630;2023-09-30T07:03:52;16.20;99.90
21123;DHT22;10719;48.130;11.630;2023-09-30T07:06:24;16.30;99.90
21123;DHT22;10719;48.130;11.630;2023-09-30T07:08:50;16.20;99.90
21123;DHT22;10719;48.130;11.630;2023-09-30T07:11:15;16.30;99.90
21123;DHT22;10719;48.130;11.630;2023-09-30T07:13:41;16.40;99.90
21123;DHT22;10719;48.130;11.630;2023-09-30T07:16:06;16.50;99.90
21123;DHT22;10719;48.130;11.630;2023-09-30T07:18:32;16.40;99.90
21123;DHT22;10719;48.130;11.630;2023-09-30T07:20:58;16.40;99.90
21123;DHT22;10719;48.130;11.630;2023-09-30T07:23:23;16.40;99.90
21123;DHT22;10719;48.130;11.630;2023-09-30T07:25:49;16.40;99.90
21123;DHT22;10719;48.130;11.630;2023-09-30T07:28:15;16.50;99.90
21123;DHT22;10719;48.130;11.630;2023-09-30T07:30:40;16.60;99.90
21123;DHT22;10719;48.130;11.630;2023-09-30T07:33:06;16.60;99.90
21123;DHT22;10719;48.130;11.630;2023-09-30T07:35:33;16.70;99.90
21123;DHT22;10719;48.130;11.630;2023-09-30T07:37:58;16.70;99.90
21123;DHT22;10719;48.130;11.630;2023-09-30T07:40:24;16.70;99.90
21123;DHT22;10719;48.130;11.630;2023-09-30T07:42:50;16.70;99.90
21123;DHT22;10719;48.130;11.630;2023-09-30T07:45:16;16.60;99.90
21123;DHT22;10719;48.130;11.630;2023-09-30T07:47:45;16.60;99.90
21123;DHT22;10719;48.130;11.630;2023-09-30T07:50:12;16.60;99.90
21123;DHT22;10719;48.130;11.630;2023-09-30T07:52:38;16.60;99.90
21123;DHT22;10719;48.130;11.630;2023-09-30T07:55:05;16.60;99.90
21123;DHT22;10719;48.130;11.630;2023-09-30T07:57:31;16.60;99.90
21123;DHT22;10719;48.130;11.630;2023-09-30T07:59:56;16.60;99.90
21123;DHT22;10719;48.130;11.630;2023-09-30T08:02:22;16.70;99.90
21123;DHT22;10719;48.130;11.630;2023-09-30T08:04:48;16.70;99.90
21123;DHT22;10719;48.130;11.630;2023-09-30T08:07:13;16.70;99.90
21123;DHT22;10719;48.130;11.630;2023-09-30T08:09:39;16.70;99.90
21123;DHT22;10719;48.130;11.630;2023-09-30T08:12:05;16.90;99.90
21123;DHT22;10719;48.130;11.630;2023-09-30T08:14:32;17.10;99.90
21123;DHT22;10719;48.130;11.630;2023-09-30T08:16:57;17.30;99.90
21123;DHT22;10719;48.130;11.630;2023-09-30T08:19:23;17.40;99.90
21123;DHT22;10719;48.130;11.630;2023-09-30T08:21:48;17.40;99.90
21123;DHT22;10719;48.130;11.630;2023-09-30T08:24:14;17.50;99.90
21123;DHT22;10719;48.130;11.630;2023-09-30T08:26:40;17.40;99.90
21123;DHT22;10719;48.130;11.630;2023-09-30T08:29:06;17.20;99.90
21123;DHT22;10719;48.130;11.630;2023-09-30T08:31:32;17.20;99.90
21123;DHT22;10719;48.130;11.630;2023-09-30T08:33:58;17.40;99.90
21123;DHT22;10719;48.130;11.630;2023-09-30T08:36:24;17.60;99.90
21123;DHT22;10719;48.130;11.630;2023-09-30T08:38:50;17.60;99.90
21123;DHT22;10719;48.130;11.630;2023-09-30T08:41:32;17.70;99.90
21123;DHT22;10719;48.130;11.630;2023-09-30T08:44:02;17.70;99.90
21123;DHT22;10719;48.130;11.630;2023-09-30T08:46:33;17.90;99.90
21123;DHT22;10719;48.130;11.630;2023-09-30T08:49:03;17.90;99.90
21123;DHT22;10719;48.130;11.630;2023-09-30T08:51:30;17.80;99.90
21123;DHT22;10719;48.130;11.630;2023-09-30T08:53:57;17.80;99.90
21123;DHT22;10719;48.130;11.630;2023-09-30T08:56:27;17.60;99.90
21123;DHT22;10719;48.130;11.630;2023-09-30T08:58:57;17.60;99.90
21123;DHT22;10719;48.130;11.630;2023-09-30T09:01:25;17.70;99.90
21123;DHT22;10719;48.130;11.630;2023-09-30T09:03:51;17.80;99.90
21123;DHT22;10719;48.130;11.630;2023-09-30T09:06:19;17.90;99.90
21123;DHT22;10719;48.130;11.630;2023-09-30T09:08:44;18.00;99.90
21123;DHT22;10719;48.130;11.630;2023-09-30T09:11:10;18.20;99.90
21123;DHT22;10719;48.130;11.630;2023-09-30T09:13:50;18.30;99.90
21123;DHT22;10719;48.130;11.630;2023-09-30T09:16:17;18.70;99.90
21123;DHT22;10719;48.130;11.630;2023-09-30T09:18:44;19.90;99.90
21123;DHT22;10719;48.130;11.630;2023-09-30T09:21:20;20.70;99.90
21123;DHT22;10719;48.130;11.630;2023-09-30T09:23:48;20.90;99.90
21123;DHT22;10719;48.130;11.630;2023-09-30T09:26:28;20.50;99.90
21123;DHT22;10719;48.130;11.630;2023-09-30T09:28:59;20.00;99.90
21123;DHT22;10719;48.130;11.630;2023-09-30T09:31:31;20.30;99.90
21123;DHT22;10719;48.130;11.630;2023-09-30T09:33:57;20.10;99.90
21123;DHT22;10719;48.130;11.630;2023-09-30T09:36:39;20.00;99.90
21123;DHT22;10719;48.130;11.630;2023-09-30T09:39:06;19.50;99.90
21123;DHT22;10719;48.130;11.630;2023-09-30T09:41:32;18.90;99.90
21123;DHT22;10719;48.130;11.630;2023-09-30T09:43:59;18.70;99.90
21123;DHT22;10719;48.130;11.630;2023-09-30T09:46:25;18.60;99.90
21123;DHT22;10719;48.130;11.630;2023-09-30T09:48:52;18.60;99.90
21123;DHT22;10719;48.130;11.630;2023-09-30T09:51:20;18.50;99.90
21123;DHT22;10719;48.130;11.630;2023-09-30T09:53:48;18.70;99.90
21123;DHT22;10719;48.130;11.630;2023-09-30T09:56:15;19.10;99.90
21123;DHT22;10719;48.130;11.630;2023-09-30T09:58:42;19.20;99.90
21123;DHT22;10719;48.130;11.630;2023-09-30T10:01:10;20.30;99.90
21123;DHT22;10719;48.130;11.630;2023-09-30T10:03:37;21.20;99.90
21123;DHT22;10719;48.130;11.630;2023-09-30T10:06:03;22.10;99.90
21123;DHT22;10719;48.130;11.630;2023-09-30T10:08:40;22.60;99.90
21123;DHT22;10719;48.130;11.630;2023-09-30T10:11:06;22.50;99.90
21123;DHT22;10719;48.130;11.630;2023-09-30T10:13:54;23.60;99.90
21123;DHT22;10719;48.130;11.630;2023-09-30T10:19:16;22.70;99.90
21123;DHT22;10719;48.130;11.630;2023-09-30T10:24:44;22.80;99.90
21123;DHT22;10719;48.130;11.630;2023-09-30T10:27:29;23.10;99.90
21123;DHT22;10719;48.130;11.630;2023-09-30T10:37:43;22.50;99.90
21123;DHT22;10719;48.130;11.630;2023-09-30T10:40:09;22.00;99.90
21123;DHT22;10719;48.130;11.630;2023-09-30T10:42:48;22.30;99.90
21123;DHT22;10719;48.130;11.630;2023-09-30T10:50:59;23.40;99.90
21123;DHT22;10719;48.130;11.630;2023-09-30T10:53:29;23.20;99.90
21123;DHT22;10719;48.130;11.630;2023-09-30T10:55:56;22.50;99.90
21123;DHT22;10719;48.130;11.630;2023-09-30T10:58:39;22.70;99.90
21123;DHT22;10719;48.130;11.630;2023-09-30T11:01:04;22.80;99.90
21123;DHT22;10719;48.130;11.630;2023-09-30T11:03:30;22.50;99.90
21123;DHT22;10719;48.130;11.630;2023-09-30T11:05:55;22.60;99.90
21123;DHT22;10719;48.130;11.630;2023-09-30T11:08:21;22.10;99.90
21123;DHT22;10719;48.130;11.630;2023-09-30T11:10:51;21.80;99.90
21123;DHT22;10719;48.130;11.630;2023-09-30T11:13:17;22.00;99.90
21123;DHT22;10719;48.130;11.630;2023-09-30T11:15:44;22.30;99.90
21123;DHT22;10719;48.130;11.630;2023-09-30T11:18:14;22.10;99.90
21123;DHT22;10719;48.130;11.630;2023-09-30T11:20:41;22.60;99.90
21123;DHT22;10719;48.130;11.630;2023-09-30T11:23:07;23.40;99.90
21123;DHT22;10719;48.130;11.630;2023-09-30T11:25:37;23.20;99.90
21123;DHT22;10719;48.130;11.630;2023-09-30T11:28:17;22.70;99.90
21123;DHT22;10719;48.130;11.630;2023-09-30T11:31:01;23.10;99.90
21123;DHT22;10719;48.130;11.630;2023-09-30T11:33:32;23.20;99.90
21123;DHT22;10719;48.130;11.630;2023-09-30T11:36:05;23.00;99.90
21123;DHT22;10719;48.130;11.630;2023-09-30T11:38:35;22.60;99.90
21123;DHT22;10719;48.130;11.630;2023-09-30T11:41:05;21.60;99.90
21123;DHT22;10719;48.130;11.630;2023-09-30T11:43:33;21.20;99.90
21123;DHT22;10719;48.130;11.630;2023-09-30T11:48:31;22.50;99.90
21123;DHT22;10719;48.130;11.630;2023-09-30T11:50:59;22.80;99.90
21123;DHT22;10719;48.130;11.630;2023-09-30T11:53:28;23.50;99.90
21123;DHT22;10719;48.130;11.630;2023-09-30T11:55:56;24.10;99.90
21123;DHT22;10719;48.130;11.630;2023-09-30T11:58:25;24.90;99.90
21123;DHT22;10719;48.130;11.630;2023-09-30T12:00:53;24.60;99.90
21123;DHT22;10719;48.130;11.630;2023-09-30T12:03:19;24.30;99.90
21123;DHT22;10719;48.130;11.630;2023-09-30T12:05:45;23.50;99.90
21123;DHT22;10719;48.130;11.630;2023-09-30T12:08:11;22.50;99.90
21123;DHT22;10719;48.130;11.630;2023-09-30T12:10:37;22.20;99.90
21123;DHT22;10719;48.130;11.630;2023-09-30T12:13:04;23.10;99.90
21123;DHT22;10719;48.130;11.630;2023-09-30T12:15:30;23.80;99.90
21123;DHT22;10719;48.130;11.630;2023-09-30T12:17:56;24.00;99.90
21123;DHT22;10719;48.130;11.630;2023-09-30T12:20:21;24.00;99.90
21123;DHT22;10719;48.130;11.630;2023-09-30T12:22:47;23.70;99.90
21123;DHT22;10719;48.130;11.630;2023-09-30T12:25:12;23.80;99.90
21123;DHT22;10719;48.130;11.630;2023-09-30T12:27:38;24.20;99.90
21123;DHT22;10719;48.130;11.630;2023-09-30T12:30:05;24.80;99.90
21123;DHT22;10719;48.130;11.630;2023-09-30T12:32:32;25.50;99.90
21123;DHT22;10719;48.130;11.630;2023-09-30T12:34:58;25.50;99.90
21123;DHT22;10719;48.130;11.630;2023-09-30T12:37:23;26.10;99.90
21123;DHT22;10719;48.130;11.630;2023-09-30T12:39:49;25.10;99.90
21123;DHT22;10719;48.130;11.630;2023-09-30T12:42:15;23.80;99.90
21123;DHT22;10719;48.130;11.630;2023-09-30T12:44:41;23.10;99.90
21123;DHT22;10719;48.130;11.630;2023-09-30T12:47:07;22.70;99.90
21123;DHT22;10719;48.130;11.630;2023-09-30T12:49:32;23.30;99.90
21123;DHT22;10719;48.130;11.630;2023-09-30T12:51:58;23.30;99.90
21123;DHT22;10719;48.130;11.630;2023-09-30T12:54:25;23.20;99.90
21123;DHT22;10719;48.130;11.630;2023-09-30T12:56:51;23.00;99.90
21123;DHT22;10719;48.130;11.630;2023-09-30T12:59:17;22.00;99.90
21123;DHT22;10719;48.130;11.630;2023-09-30T13:01:49;22.00;99.90
21123;DHT22;10719;48.130;11.630;2023-09-30T13:04:15;21.70;99.90
21123;DHT22;10719;48.130;11.630;2023-09-30T13:06:41;21.60;99.90
21123;DHT22;10719;48.130;11.630;2023-09-30T13:09:06;22.00;99.90
21123;DHT22;10719;48.130;11.630;2023-09-30T13:11:34;22.60;99.90
21123;DHT22;10719;48.130;11.630;2023-09-30T13:13:59;22.80;99.90
21123;DHT22;10719;48.130;11.630;2023-09-30T13:16:25;23.00;99.90
21123;DHT22;10719;48.130;11.630;2023-09-30T13:18:51;23.00;99.90
21123;DHT22;10719;48.130;11.630;2023-09-30T13:21:19;22.70;99.90
21123;DHT22;10719;48.130;11.630;2023-09-30T13:23:45;22.20;99.90
21123;DHT22;10719;48.130;11.630;2023-09-30T13:26:11;21.60;99.90
21123;DHT22;10719;48.130;11.630;2023-09-30T13:28:37;21.70;99.90
21123;DHT22;10719;48.130;11.630;2023-09-30T13:31:02;21.70;99.90
21123;DHT22;10719;48.130;11.630;2023-09-30T13:33:28;21.60;99.90
21123;DHT22;10719;48.130;11.630;2023-09-30T13:35:53;21.60;99.90
21123;DHT22;10719;48.130;11.630;2023-09-30T13:38:21;21.50;99.90
21123;DHT22;10719;48.130;11.630;2023-09-30T13:40:46;21.50;99.90
21123;DHT22;10719;48.130;11.630;2023-09-30T13:43:12;21.20;99.90
21123;DHT22;10719;48.130;11.630;2023-09-30T13:45:37;21.10;99.90
21123;DHT22;10719;48.130;11.630;2023-09-30T13:48:03;21.10;99.90
21123;DHT22;10719;48.130;11.630;2023-09-30T13:50:29;21.00;99.90
21123;DHT22;10719;48.130;11.630;2023-09-30T13:52:55;21.00;99.90
21123;DHT22;10719;48.130;11.630;2023-09-30T13:55:21;20.90;99.90
21123;DHT22;10719;48.130;11.630;2023-09-30T13:57:47;20.70;99.90
21123;DHT22;10719;48.130;11.630;2023-09-30T14:00:15;20.80;99.90
21123;DHT22;10719;48.130;11.630;2023-09-30T14:02:42;20.90;99.90
21123;DHT22;10719;48.130;11.630;2023-09-30T14:05:10;21.20;99.90
21123;DHT22;10719;48.130;11.630;2023-09-30T14:07:38;21.50;99.90
21123;DHT22;10719;48.130;11.630;2023-09-30T14:10:06;21.50;99.90
21123;DHT22;10719;48.130;11.630;2023-09-30T14:12:32;21.20;99.90
21123;DHT22;10719;48.130;11.630;2023-09-30T14:14:57;21.30;99.90
21123;DHT22;10719;48.130;11.630;2023-09-30T14:17:23;21.20;99.90
21123;DHT22;10719;48.130;11.630;2023-09-30T14:19:48;21.20;99.90
21123;DHT22;10719;48.130;11.630;2023-09-30T14:22:15;21.20;99.90
21123;DHT22;10719;48.130;11.630;2023-09-30T14:24:40;21.10;99.90
21123;DHT22;10719;48.130;11.630;2023-09-30T14:27:06;21.10;99.90
21123;DHT22;10719;48.130;11.630;2023-09-30T14:29:32;20.90;99.90
21123;DHT22;10719;48.130;11.630;2023-09-30T14:31:58;20.60;99.90
21123;DHT22;10719;48.130;11.630;2023-09-30T14:34:24;20.50;99.90
21123;DHT22;10719;48.130;11.630;2023-09-30T14:36:50;20.70;99.90
21123;DHT22;10719;48.130;11.630;2023-09-30T14:39:16;20.40;99.90
21123;DHT22;10719;48.130;11.630;2023-09-30T14:41:43;20.20;99.90
21123;DHT22;10719;48.130;11.630;2023-09-30T14:44:09;20.10;99.90
21123;DHT22;10719;48.130;11.630;2023-09-30T14:46:40;20.00;99.90
21123;DHT22;10719;48.130;11.630;2023-09-30T14:49:06;20.00;99.90
21123;DHT22;10719;48.130;11.630;2023-09-30T14:51:32;19.90;99.90
21123;DHT22;10719;48.130;11.630;2023-09-30T14:53:58;19.80;99.90
21123;DHT22;10719;48.130;11.630;2023-09-30T14:56:24;19.90;99.90
21123;DHT22;10719;48.130;11.630;2023-09-30T14:58:49;19.80;99.90
21123;DHT22;10719;48.130;11.630;2023-09-30T15:01:15;19.60;99.90
21123;DHT22;10719;48.130;11.630;2023-09-30T15:03:40;19.50;99.90
21123;DHT22;10719;48.130;11.630;2023-09-30T15:06:06;19.50;99.90
21123;DHT22;10719;48.130;11.630;2023-09-30T15:08:33;19.40;99.90
21123;DHT22;10719;48.130;11.630;2023-09-30T15:11:02;19.30;99.90
21123;DHT22;10719;48.130;11.630;2023-09-30T15:13:28;19.30;99.90
21123;DHT22;10719;48.130;11.630;2023-09-30T15:15:55;19.20;99.90
21123;DHT22;10719;48.130;11.630;2023-09-30T15:18:20;19.30;99.90
21123;DHT22;10719;48.130;11.630;2023-09-30T15:20:46;19.40;99.90
21123;DHT22;10719;48.130;11.630;2023-09-30T15:23:14;19.40;99.90
21123;DHT22;10719;48.130;11.630;2023-09-30T15:25:40;19.30;99.90
21123;DHT22;10719;48.130;11.630;2023-09-30T15:28:07;19.30;99.90
21123;DHT22;10719;48.130;11.630;2023-09-30T15:30:33;19.30;99.90
21123;DHT22;10719;48.130;11.630;2023-09-30T15:32:58;19.20;99.90
21123;DHT22;10719;48.130;11.630;2023-09-30T15:35:24;19.20;99.90